Time;durP1;ratioP1;P1;durP2;ratioP2;P2;SDS_P1;SDS_P2;PMS_P1;PMS_P2;Temp;Humidity;BMP_temperature;BMP_pressure;BME280_temperature;BME280_humidity;BME280_pressure;Samples;Min_cycle;Max_cycle;Signal;HPM_P1;HPM_P2
2022/06/13 00:01:30;;;;;;;28.88;9.02;;;;;;;11.38;100.00;101336.78;5065040;28;20025;-76
2022/06/13 00:03:56;;;;;;;26.80;7.97;;;;;;;11.39;100.00;101329.59;5048701;28;20144;-76
2022/06/13 00:06:22;;;;;;;23.85;7.38;;;;;;;11.40;100.00;101326.78;5065973;28;20028;-76
2022/06/13 00:08:47;;;;;;;34.10;7.47;;;;;;;11.45;100.00;101326.31;5065123;28;20040;-76
2022/06/13 00:11:15;;;;;;;29.40;9.00;;;;;;;11.47;100.00;101323.47;5064739;28;20032;-75
2022/06/13 00:13:43;;;;;;;20.55;6.90;;;;;;;11.45;100.00;101325.44;5066246;28;20041;-75
2022/06/13 00:16:10;;;;;;;24.33;7.80;;;;;;;11.48;100.00;101326.00;5065816;28;20021;-75
2022/06/13 00:18:36;;;;;;;19.40;7.78;;;;;;;11.45;100.00;101326.31;5064839;28;20539;-75
2022/06/13 00:21:01;;;;;;;25.25;7.80;;;;;;;11.49;100.00;101326.81;5048307;28;20024;-75
2022/06/13 00:23:27;;;;;;;24.58;7.18;;;;;;;11.48;100.00;101333.19;5048410;28;20037;-75
2022/06/13 00:25:52;;;;;;;26.57;7.07;;;;;;;11.50;100.00;101337.38;5064844;28;20024;-75
2022/06/13 00:28:18;;;;;;;25.13;8.10;;;;;;;11.47;100.00;101335.03;5064736;28;20613;-75
2022/06/13 00:30:44;;;;;;;20.70;6.35;;;;;;;11.54;100.00;101329.88;5064311;28;20418;-76
2022/06/13 00:33:09;;;;;;;22.30;6.50;;;;;;;11.57;100.00;101333.09;5064500;28;20116;-75
2022/06/13 00:35:35;;;;;;;14.63;6.40;;;;;;;11.61;100.00;101326.44;5064621;28;20047;-75
2022/06/13 00:38:00;;;;;;;28.85;8.48;;;;;;;11.48;100.00;101314.47;5065956;28;20528;-76
2022/06/13 00:40:26;;;;;;;22.83;7.50;;;;;;;11.51;100.00;101327.50;5065960;28;20047;-75
2022/06/13 00:42:52;;;;;;;19.05;6.22;;;;;;;11.50;100.00;101323.16;5064846;28;20029;-75
2022/06/13 00:45:24;;;;;;;37.93;9.77;;;;;;;11.53;100.00;101328.19;5064739;28;20029;-77
2022/06/13 00:47:53;;;;;;;20.25;6.80;;;;;;;11.57;100.00;101329.56;5048527;28;20655;-75
2022/06/13 00:50:24;;;;;;;19.48;7.85;;;;;;;11.45;100.00;101320.09;5064488;28;20028;-75
2022/06/13 00:52:55;;;;;;;28.80;9.98;;;;;;;11.42;100.00;101331.94;5064582;28;20029;-74
2022/06/13 00:55:33;;;;;;;21.95;6.70;;;;;;;11.46;100.00;101330.66;5064748;28;20040;-75
2022/06/13 00:58:01;;;;;;;18.35;6.90;;;;;;;11.51;100.00;101327.50;5064407;28;20128;-75
2022/06/13 01:00:27;;;;;;;20.92;7.07;;;;;;;11.53;100.00;101322.84;5064218;28;20150;-75
2022/06/13 01:02:53;;;;;;;;;;;;;;;11.63;100.00;101312.88;5064962;28;20067;-77
2022/06/13 01:05:22;;;;;;;;;;;;;;;11.58;100.00;101316.03;5048188;28;20399;-77
2022/06/13 01:07:48;;;;;;;24.63;6.72;;;;;;;11.44;100.00;101302.38;5064601;28;19912;-77
2022/06/13 01:13:01;;;;;;;26.45;7.03;;;;;;;11.33;100.00;101307.00;5064239;28;20036;-73
2022/06/13 01:15:52;;;;;;;23.23;7.38;;;;;;;11.38;100.00;101314.56;5063830;28;20385;-75
2022/06/13 01:18:51;;;;;;;24.55;8.13;;;;;;;11.35;100.00;101315.66;5064018;28;20036;-73
2022/06/13 01:21:28;;;;;;;20.55;7.10;;;;;;;11.40;100.00;101316.06;5065022;28;20040;-75
2022/06/13 01:24:34;;;;;;;29.58;7.05;;;;;;;11.41;100.00;101309.72;5064387;28;20086;-76
2022/06/13 01:27:43;;;;;;;19.90;6.75;;;;;;;11.51;100.00;101306.13;5060225;28;20543;-74
2022/06/13 01:30:34;;;;;;;24.30;9.63;;;;;;;11.49;100.00;101300.09;5053702;28;20119;-77
2022/06/13 01:33:24;;;;;;;20.92;6.97;;;;;;;11.43;100.00;101296.22;5060145;28;20044;-75
2022/06/13 01:36:28;;;;;;;25.92;6.43;;;;;;;11.46;100.00;101295.06;5059998;28;20082;-74
2022/06/13 01:39:20;;;;;;;26.75;6.70;;;;;;;11.45;100.00;101306.72;5004188;28;20080;-75
2022/06/13 01:42:26;;;;;;;23.55;7.88;;;;;;;11.45;100.00;101296.03;5057837;28;20032;-74
2022/06/13 01:45:29;;;;;;;23.60;7.35;;;;;;;11.37;100.00;101292.31;5063865;28;20028;-75
2022/06/13 01:48:22;;;;;;;21.85;6.53;;;;;;;11.32;100.00;101291.09;5063303;28;20036;-76
2022/06/13 01:50:54;;;;;;;26.02;6.30;;;;;;;11.27;100.00;101293.41;5061878;28;20482;-75
2022/06/13 01:53:39;;;;;;;23.15;7.65;;;;;;;11.24;100.00;101299.88;5067597;28;20040;-75
2022/06/13 01:56:13;;;;;;;27.92;7.30;;;;;;;11.21;100.00;101300.19;5067695;28;20090;-75
2022/06/13 01:58:49;;;;;;;27.35;8.18;;;;;;;11.21;100.00;101297.50;5068729;28;20119;-75
2022/06/13 02:01:21;;;;;;;;;;;;;;;11.18;100.00;101308.50;5067496;28;20493;-75
2022/06/13 02:04:06;;;;;;;20.95;7.50;;;;;;;11.11;100.00;101305.59;5067549;28;20045;-77
2022/06/13 02:06:36;;;;;;;21.73;7.32;;;;;;;11.07;100.00;101300.72;5039706;28;20028;-77
2022/06/13 02:09:11;;;;;;;26.63;7.78;;;;;;;11.05;100.00;101292.88;5065120;28;20063;-75
2022/06/13 02:11:43;;;;;;;25.10;7.72;;;;;;;11.03;100.00;101292.19;5043310;28;20075;-73
2022/06/13 02:14:14;;;;;;;30.15;7.38;;;;;;;10.91;100.00;101288.88;5050338;28;20039;-76
2022/06/13 02:17:07;;;;;;;22.77;7.38;;;;;;;10.84;100.00;101277.13;5061299;28;20056;-75
2022/06/13 02:19:46;;;;;;;24.05;7.88;;;;;;;10.83;100.00;101283.44;5056407;28;20524;-77
2022/06/13 02:22:19;;;;;;;30.90;8.90;;;;;;;10.76;100.00;101277.03;5064540;28;20024;-75
2022/06/13 02:24:52;;;;;;;29.38;8.20;;;;;;;10.72;100.00;101271.16;5060801;28;20032;-76
2022/06/13 02:27:19;;;;;;;26.67;8.52;;;;;;;10.72;100.00;101279.19;5067864;28;20052;-76
2022/06/13 02:29:49;;;;;;;26.83;8.52;;;;;;;10.84;100.00;101284.28;5067828;28;20135;-75
2022/06/13 02:32:20;;;;;;;24.23;8.13;;;;;;;10.80;100.00;101280.25;5050445;28;20389;-74
2022/06/13 02:34:55;;;;;;;21.63;7.22;;;;;;;10.84;100.00;101279.81;5050354;28;20029;-74
2022/06/13 02:37:27;;;;;;;30.10;6.70;;;;;;;10.95;100.00;101279.56;5066792;28;20041;-75
2022/06/13 02:40:11;;;;;;;33.28;8.02;;;;;;;10.96;100.00;101275.91;5068083;28;20032;-76
2022/06/13 02:42:46;;;;;;;34.63;8.40;;;;;;;10.89;100.00;101258.81;5051205;28;20040;-75
2022/06/13 02:45:22;;;;;;;24.77;7.75;;;;;;;10.95;100.00;101270.72;5066724;28;20039;-75
2022/06/13 02:48:00;;;;;;;21.70;6.40;;;;;;;10.96;100.00;101267.06;5066392;28;20114;-76
2022/06/13 02:50:51;;;;;;;21.45;6.32;;;;;;;10.96;100.00;101273.25;5066168;28;20037;-76
2022/06/13 02:53:43;;;;;;;21.10;7.45;;;;;;;10.90;100.00;101257.81;5066287;28;20041;-73
2022/06/13 02:56:26;;;;;;;20.48;6.80;;;;;;;10.94;100.00;101259.19;5065701;28;20048;-76
2022/06/13 02:59:11;;;;;;;25.25;7.72;;;;;;;11.01;100.00;101269.28;5061063;28;20534;-75
2022/06/13 03:01:42;;;;;;;27.27;7.97;;;;;;;11.05;100.00;101267.97;5060066;28;20016;-75
2022/06/13 03:04:08;;;;;;;28.52;7.90;;;;;;;11.11;100.00;101267.34;5065904;28;20024;-75
2022/06/13 03:07:06;;;;;;;25.93;7.67;;;;;;;11.13;100.00;101274.22;5065992;28;20462;-74
2022/06/13 03:09:43;;;;;;;31.83;9.55;;;;;;;11.10;100.00;101265.69;5057978;28;20042;-76
2022/06/13 03:12:31;;;;;;;20.80;7.28;;;;;;;11.06;100.00;101261.63;5094737;22;20516;-89
2022/06/13 03:15:03;;;;;;;21.13;6.95;;;;;;;11.10;100.00;101252.34;5072422;28;20032;-89
2022/06/13 03:17:50;;;;;;;20.10;7.13;;;;;;;10.98;100.00;101249.06;5056592;28;20116;-88
2022/06/13 03:20:28;;;;;;;25.85;6.45;;;;;;;10.98;100.00;101239.19;5074812;28;20082;-89
2022/06/13 03:23:02;;;;;;;23.05;6.57;;;;;;;10.95;100.00;101239.47;5060150;28;20032;-89
2022/06/13 03:25:49;;;;;;;24.05;7.00;;;;;;;10.95;100.00;101223.44;5059606;28;20035;-90
2022/06/13 03:28:26;;;;;;;30.33;6.70;;;;;;;10.97;100.00;101221.47;5076611;28;20048;-89
2022/06/13 03:30:58;;;;;;;19.77;5.95;;;;;;;11.01;100.00;101219.34;5076548;28;20036;-89
2022/06/13 03:33:42;;;;;;;17.13;5.35;;;;;;;11.02;100.00;101225.53;5076856;28;20059;-89
2022/06/13 03:36:17;;;;;;;13.57;5.90;;;;;;;10.96;100.00;101224.31;5058010;28;20098;-89
2022/06/13 03:39:10;;;;;;;22.48;7.15;;;;;;;10.99;100.00;101219.50;5062541;28;20036;-89
2022/06/13 03:41:42;;;;;;;16.35;5.47;;;;;;;11.13;100.00;101231.47;5063063;28;20094;-89
2022/06/13 03:44:37;;;;;;;19.85;5.45;;;;;;;11.17;100.00;101232.00;5059507;28;20088;-89
2022/06/13 03:47:10;;;;;;;13.52;4.45;;;;;;;11.11;100.00;101237.97;5056449;28;20029;-89
2022/06/13 03:49:44;;;;;;;17.70;6.20;;;;;;;11.17;100.00;101258.75;5068928;28;20075;-89
2022/06/13 03:52:13;;;;;;;19.58;6.47;;;;;;;11.29;100.00;101270.84;5060193;28;20037;-90
2022/06/13 03:54:45;;;;;;;17.60;5.40;;;;;;;11.12;100.00;101251.19;5076789;28;20021;-89
2022/06/13 03:57:26;;;;;;;27.15;7.35;;;;;;;11.13;100.00;101252.00;5068232;28;20036;-89
2022/06/13 04:00:08;;;;;;;26.42;6.00;;;;;;;11.16;100.00;101251.69;5051675;28;20650;-89
2022/06/13 04:02:38;;;;;;;21.35;6.18;;;;;;;11.27;100.00;101254.13;5067922;28;20028;-88
2022/06/13 04:05:04;;;;;;;25.30;7.68;;;;;;;11.30;100.00;101275.19;5073079;28;20028;-87
2022/06/13 04:07:33;;;;;;;;;;;;;;;11.31;100.00;101284.91;5053486;28;20434;-88
2022/06/13 04:10:12;;;;;;;15.77;4.88;;;;;;;11.24;100.00;101277.66;5054732;28;20388;-90
2022/06/13 04:12:46;;;;;;;20.23;6.63;;;;;;;10.94;100.00;101269.03;5047660;28;20047;-88
2022/06/13 04:15:20;;;;;;;11.63;5.03;;;;;;;10.87;100.00;101266.13;5055039;28;20040;-89
2022/06/13 04:18:10;;;;;;;19.13;5.68;;;;;;;10.78;100.00;101297.25;5049990;28;20033;-88
2022/06/13 04:20:38;;;;;;;16.77;5.60;;;;;;;10.76;100.00;101303.75;5046350;28;20032;-89
2022/06/13 04:23:10;;;;;;;14.80;5.32;;;;;;;10.80;100.00;101310.47;5069625;28;20016;-89
2022/06/13 04:25:50;;;;;;;11.73;3.17;;;;;;;10.48;100.00;101302.91;5068928;28;20028;-89
2022/06/13 04:28:20;;;;;;;10.13;3.72;;;;;;;10.48;100.00;101300.25;5068589;28;20032;-88
2022/06/13 04:30:48;;;;;;;9.88;4.85;;;;;;;10.35;100.00;101289.91;5051811;28;20017;-89
2022/06/13 04:33:39;;;;;;;10.40;3.50;;;;;;;10.28;100.00;101299.47;5051990;28;20493;-88
2022/06/13 04:36:07;;;;;;;16.38;3.80;;;;;;;10.20;100.00;101307.34;5051565;28;20047;-88
2022/06/13 04:38:34;;;;;;;13.27;3.72;;;;;;;10.12;100.00;101316.94;5060149;28;20020;-88
2022/06/13 04:41:03;;;;;;;15.20;3.70;;;;;;;10.23;100.00;101313.25;5051091;28;20028;-88
2022/06/13 04:43:34;;;;;;;15.15;4.60;;;;;;;10.08;100.00;101299.53;5061675;28;20472;-88
2022/06/13 04:46:11;;;;;;;10.18;3.78;;;;;;;10.20;100.00;101312.69;5051417;28;20456;-89
2022/06/13 04:48:39;;;;;;;15.38;4.72;;;;;;;10.24;100.00;101319.44;5061254;28;20718;-89
2022/06/13 04:51:18;;;;;;;8.88;3.83;;;;;;;10.47;100.00;101320.75;5068054;28;20016;-89
2022/06/13 04:53:59;;;;;;;14.38;4.68;;;;;;;10.52;100.00;101323.81;5068460;28;20496;-89
2022/06/13 04:56:25;;;;;;;13.95;4.18;;;;;;;10.48;100.00;101326.94;5068079;28;20489;-88
2022/06/13 04:58:53;;;;;;;16.35;5.63;;;;;;;10.54;100.00;101321.84;5051381;28;20016;-88
2022/06/13 05:01:29;;;;;;;7.45;3.60;;;;;;;10.73;100.00;101320.06;5067796;28;20040;-88
2022/06/13 05:03:57;;;;;;;14.27;4.68;;;;;;;10.84;100.00;101306.50;5052165;28;20029;-88
2022/06/13 05:06:37;;;;;;;19.27;4.75;;;;;;;10.95;100.00;101305.44;5059834;28;20024;-89
2022/06/13 05:09:08;;;;;;;8.38;4.20;;;;;;;11.02;100.00;101308.34;5048685;28;20036;-89
2022/06/13 05:11:40;;;;;;;6.40;3.83;;;;;;;11.12;100.00;101296.59;5043953;28;20029;-89
2022/06/13 05:14:34;;;;;;;9.55;3.67;;;;;;;11.30;100.00;101285.91;5068560;28;20098;-88
2022/06/13 05:17:18;;;;;;;11.95;2.97;;;;;;;11.15;100.00;101277.59;5068330;28;20434;-89
2022/06/13 05:19:54;;;;;;;10.30;3.40;;;;;;;10.99;100.00;101258.72;5065849;28;20032;-88
2022/06/13 05:22:55;;;;;;;9.60;3.15;;;;;;;11.28;100.00;101257.63;5054966;28;20045;-88
2022/06/13 05:25:44;;;;;;;12.57;3.80;;;;;;;11.48;100.00;101256.47;5025322;28;20037;-87
2022/06/13 05:28:15;;;;;;;11.43;3.90;;;;;;;11.44;100.00;101248.91;5070300;28;20040;-88
2022/06/13 05:30:46;;;;;;;11.15;3.83;;;;;;;11.67;100.00;101249.25;5055725;28;20081;-88
2022/06/13 05:33:18;;;;;;;10.27;4.22;;;;;;;11.80;100.00;101257.69;5074688;28;20048;-86
2022/06/13 05:35:45;;;;;;;16.63;5.50;;;;;;;11.60;100.00;101243.69;5059178;28;20477;-89
2022/06/13 05:38:29;;;;;;;13.48;5.45;;;;;;;11.59;100.00;101260.75;5071952;28;20019;-88
2022/06/13 05:40:54;;;;;;;21.80;7.18;;;;;;;11.65;100.00;101272.63;5071914;28;20056;-88
2022/06/13 05:43:19;;;;;;;18.33;7.63;;;;;;;11.49;100.00;101271.50;5071725;28;20106;-88
2022/06/13 05:45:45;;;;;;;14.57;5.40;;;;;;;11.56;100.00;101285.09;5071763;28;20473;-88
2022/06/13 05:48:14;;;;;;;15.90;5.57;;;;;;;11.53;100.00;101290.75;5054765;28;20013;-87
2022/06/13 05:50:40;;;;;;;28.35;5.85;;;;;;;11.50;100.00;101291.91;5072798;28;20036;-89
2022/06/13 05:53:06;;;;;;;;;;;;;;;11.55;100.00;101300.31;5072063;28;20108;-88
2022/06/13 05:55:32;;;;;;;;;;;;;;;11.61;100.00;101298.84;5063568;28;19999;-88
2022/06/13 05:57:57;;;;;;;18.45;5.50;;;;;;;11.52;100.00;101294.41;5063353;28;19912;-89
2022/06/13 06:00:27;;;;;;;13.10;6.03;;;;;;;11.75;100.00;101311.66;5053765;28;20035;-89
2022/06/13 06:02:53;;;;;;;14.93;6.47;;;;;;;11.92;100.00;101306.47;5062431;28;20020;-88
2022/06/13 06:05:18;;;;;;;19.23;7.13;;;;;;;11.84;100.00;101304.53;5071730;28;20033;-89
2022/06/13 06:07:44;;;;;;;23.40;8.47;;;;;;;12.28;100.00;101311.66;5054017;28;20021;-86
2022/06/13 06:10:19;;;;;;;20.50;6.47;;;;;;;12.72;100.00;101300.81;5070242;28;20097;-86
2022/06/13 06:12:45;;;;;;;26.48;8.88;;;;;;;12.77;100.00;101291.25;5054837;28;20032;-86
2022/06/13 06:15:11;;;;;;;23.13;6.88;;;;;;;12.66;100.00;101281.69;5054507;28;20539;-86
2022/06/13 06:17:36;;;;;;;13.98;6.93;;;;;;;12.96;100.00;101282.09;5071428;28;20617;-87
2022/06/13 06:20:02;;;;;;;20.08;6.60;;;;;;;12.95;100.00;101277.75;5070921;28;20016;-87
2022/06/13 06:22:28;;;;;;;20.05;7.07;;;;;;;12.96;100.00;101257.97;5071163;28;20184;-87
2022/06/13 06:24:53;;;;;;;21.40;7.43;;;;;;;13.01;100.00;101260.97;5054836;28;20031;-86
2022/06/13 06:27:19;;;;;;;9.50;5.60;;;;;;;13.04;100.00;101259.81;5054317;28;20059;-86
2022/06/13 06:29:44;;;;;;;29.88;6.63;;;;;;;12.97;100.00;101265.03;5069666;28;20032;-88
2022/06/13 06:32:10;;;;;;;19.67;7.77;;;;;;;12.74;100.00;101258.63;5054503;28;20036;-86
2022/06/13 06:34:35;;;;;;;23.33;8.13;;;;;;;12.80;100.00;101274.84;5071195;28;20016;-87
2022/06/13 06:37:01;;;;;;;18.90;7.37;;;;;;;13.06;100.00;101280.13;5070737;28;20074;-85
2022/06/13 06:39:26;;;;;;;15.67;6.97;;;;;;;13.79;100.00;101274.91;5063361;28;20059;-89
2022/06/13 06:41:52;;;;;;;21.13;5.80;;;;;;;15.22;100.00;101270.22;5050660;28;20489;-89
2022/06/13 06:44:18;;;;;;;19.15;5.90;;;;;;;16.19;100.00;101226.34;5054007;28;20081;-89
2022/06/13 06:46:43;;;;;;;13.13;4.63;;;;;;;16.61;100.00;101104.31;5062210;28;20044;-89
2022/06/13 06:49:09;;;;;;;20.87;6.20;;;;;;;17.39;100.00;101065.69;5053957;28;20016;-89
2022/06/13 06:51:34;;;;;;;10.88;4.90;;;;;;;17.70;100.00;101025.53;5050445;28;20111;-89
2022/06/13 07:02:12;;;;;;;15.07;4.20;;;;;;;17.90;100.00;100779.00;5070088;28;20032;-86
2022/06/13 07:04:37;;;;;;;12.73;5.30;;;;;;;18.67;100.00;100966.63;5050163;28;20073;-86
2022/06/13 07:07:03;;;;;;;13.60;4.37;;;;;;;18.08;100.00;100825.13;5066194;28;20282;-87
2022/06/13 07:09:28;;;;;;;14.50;5.35;;;;;;;18.35;100.00;100871.00;5050011;28;20025;-88
2022/06/13 07:11:54;;;;;;;13.23;4.37;;;;;;;18.97;100.00;100937.25;5069928;28;20036;-87
2022/06/13 07:14:30;;;;;;;20.70;4.40;;;;;;;19.29;100.00;100929.22;5053425;28;20020;-86
2022/06/13 07:17:01;;;;;;;9.63;3.28;;;;;;;19.51;100.00;100908.03;5053081;28;20047;-86
2022/06/13 07:19:27;;;;;;;11.55;3.25;;;;;;;19.44;100.00;100863.94;5069766;28;20067;-86
2022/06/13 07:21:54;;;;;;;14.80;3.88;;;;;;;19.69;100.00;100771.94;5053228;28;20037;-86
2022/06/13 07:24:20;;;;;;;15.00;4.65;;;;;;;18.71;100.00;100731.78;5053190;28;20033;-86
2022/06/13 07:26:47;;;;;;;19.60;4.20;;;;;;;19.04;100.00;100799.22;5069497;28;20129;-86
2022/06/13 07:29:16;;;;;;;17.25;4.20;;;;;;;19.27;100.00;100901.53;5053077;28;20076;-86
2022/06/13 07:31:49;;;;;;;16.80;4.40;;;;;;;19.98;100.00;100889.59;5053103;28;20068;-85
2022/06/13 07:34:18;;;;;;;14.77;4.60;;;;;;;19.59;100.00;100869.84;5071264;28;20032;-86
2022/06/13 07:36:44;;;;;;;13.30;3.88;;;;;;;19.16;100.00;100840.78;5052911;28;20027;-86
2022/06/13 07:39:09;;;;;;;;;;;;;;;18.75;100.00;100919.56;5060504;28;20600;-90
2022/06/13 07:41:36;;;;;;;;;;;;;;;19.07;100.00;100973.84;5066054;28;19931;-87
2022/06/13 07:44:02;;;;;;;12.38;5.53;;;;;;;18.78;100.00;100900.28;5061431;28;20376;-87
2022/06/13 07:46:30;;;;;;;13.45;3.45;;;;;;;19.19;100.00;100863.88;5052763;28;20035;-87
2022/06/13 07:48:56;;;;;;;10.77;3.40;;;;;;;17.85;100.00;100595.19;5052108;28;20127;-86
2022/06/13 07:51:22;;;;;;;13.32;3.95;;;;;;;17.06;100.00;100781.22;5052258;28;20028;-86
2022/06/13 07:53:48;;;;;;;11.02;3.50;;;;;;;16.09;100.00;100878.38;5056060;28;20047;-86
2022/06/13 07:56:18;;;;;;;12.15;3.25;;;;;;;17.01;100.00;101068.78;5057436;28;20028;-86
2022/06/13 07:58:46;;;;;;;11.98;2.92;;;;;;;17.17;100.00;100852.66;5069874;28;20078;-86
2022/06/13 08:01:12;;;;;;;13.27;3.15;;;;;;;17.53;100.00;100908.16;5051545;28;20056;-86
2022/06/13 08:03:37;;;;;;;;;;;;;;;16.89;100.00;100941.75;5069484;28;20036;-86
2022/06/13 08:06:04;;;;;;;;;;;;;;;15.57;100.00;100972.72;5062538;28;19909;-86
2022/06/13 08:08:30;;;;;;;;;;;;;;;15.70;100.00;101189.22;5047911;28;19916;-86
2022/06/13 08:10:57;;;;;;;;;;;;;;;15.22;100.00;101216.44;5064911;28;19969;-86
2022/06/13 08:13:24;;;;;;;14.30;3.03;;;;;;;14.59;100.00;101207.66;5065895;28;19958;-88
2022/06/13 08:15:50;;;;;;;;;;;;;;;13.93;100.00;101118.53;5062521;28;20021;-89
2022/06/13 08:18:16;;;;;;;3.35;1.25;;;;;;;13.39;100.00;101089.75;5070026;28;19912;-90
2022/06/13 08:20:42;;;;;;;2.05;0.95;;;;;;;12.94;100.00;101125.13;5053305;28;20019;-88
2022/06/13 08:23:11;;;;;;;5.72;1.33;;;;;;;12.91;100.00;101169.19;5053012;28;20047;-87
2022/06/13 08:25:37;;;;;;;2.92;1.25;;;;;;;12.32;100.00;101195.22;5052654;28;20016;-86
2022/06/13 08:28:04;;;;;;;3.35;1.25;;;;;;;11.84;100.00;101197.50;5069105;28;20032;-88
2022/06/13 08:30:40;;;;;;;4.18;0.90;;;;;;;12.48;100.00;101283.66;5051542;28;20024;-88
2022/06/13 08:33:06;;;;;;;3.58;0.93;;;;;;;12.57;100.00;101298.75;5069629;28;20028;-87
2022/06/13 08:35:32;;;;;;;3.30;1.40;;;;;;;12.88;100.00;101330.31;5068594;28;20050;-87
2022/06/13 08:37:57;;;;;;;2.67;0.95;;;;;;;12.80;100.00;101312.34;5067498;28;20119;-86
2022/06/13 08:40:29;;;;;;;4.50;1.50;;;;;;;13.59;100.00;101317.38;5050813;28;20116;-87
2022/06/13 08:43:04;;;;;;;5.03;2.13;;;;;;;13.58;100.00;101286.16;5067534;28;20032;-87
2022/06/13 08:45:44;;;;;;;4.07;0.90;;;;;;;13.24;100.00;101268.38;5058517;28;20020;-87
2022/06/13 08:48:22;;;;;;;1.75;1.00;;;;;;;13.41;100.00;101294.22;5055980;28;20035;-88
2022/06/13 08:51:07;;;;;;;2.53;1.10;;;;;;;12.83;100.00;101287.06;5067689;28;20044;-88
2022/06/13 08:53:47;;;;;;;4.28;1.42;;;;;;;13.10;100.00;101318.13;5059522;28;20066;-88
2022/06/13 08:56:16;;;;;;;4.70;1.42;;;;;;;13.13;100.00;101316.97;5067530;28;20118;-87
2022/06/13 08:58:49;;;;;;;4.00;1.17;;;;;;;13.06;100.00;101253.31;5043426;28;20340;-88
2022/06/13 09:01:23;;;;;;;4.55;1.40;;;;;;;13.43;100.00;101294.88;5067810;28;20090;-88
2022/06/13 09:03:54;;;;;;;4.00;1.20;;;;;;;13.38;100.00;101265.06;5067694;28;20397;-88
2022/06/13 09:06:27;;;;;;;2.38;1.02;;;;;;;14.78;100.00;101351.50;5050291;28;20532;-88
2022/06/13 09:09:19;;;;;;;2.05;1.08;;;;;;;16.00;100.00;101252.84;5068444;28;20024;-88
2022/06/13 09:12:00;;;;;;;6.22;1.83;;;;;;;16.19;100.00;101227.19;5030479;28;20040;-88
2022/06/13 09:14:35;;;;;;;2.30;1.02;;;;;;;16.00;100.00;101173.91;5051070;28;20098;-88
2022/06/13 09:17:12;;;;;;;3.72;1.40;;;;;;;15.55;100.00;101192.72;5062531;22;20041;-76
2022/06/13 09:20:00;;;;;;;5.65;1.73;;;;;;;15.02;100.00;101256.41;5057518;28;20025;-75
2022/06/13 09:22:43;;;;;;;3.90;1.25;;;;;;;14.12;100.00;101232.72;5064547;28;20028;-75
2022/06/13 09:25:22;;;;;;;4.85;1.38;;;;;;;12.86;100.00;101279.56;5063391;28;20044;-74
2022/06/13 09:27:59;;;;;;;4.53;1.30;;;;;;;12.63;100.00;101354.34;5056362;28;20035;-73
2022/06/13 09:30:31;;;;;;;5.70;1.20;;;;;;;12.11;100.00;101362.44;5062816;28;20481;-74
2022/06/13 09:33:02;;;;;;;2.47;1.27;;;;;;;11.62;100.00;101386.13;5064793;28;20029;-73
2022/06/13 09:35:43;;;;;;;4.75;1.05;;;;;;;11.27;100.00;101414.50;5046560;28;20031;-73
2022/06/13 09:38:18;;;;;;;5.65;1.17;;;;;;;11.12;100.00;101438.25;5063200;28;20036;-72
2022/06/13 09:41:04;;;;;;;3.20;0.85;;;;;;;10.91;100.00;101465.22;5056485;28;20495;-73
2022/06/13 09:43:46;;;;;;;4.35;1.00;;;;;;;10.62;100.00;101456.44;5061943;28;20071;-72
2022/06/13 09:46:38;;;;;;;4.70;1.10;;;;;;;10.73;100.00;101480.31;5056243;28;20052;-75
2022/06/13 09:49:29;;;;;;;5.10;1.50;;;;;;;10.82;100.00;101482.13;5061011;28;20397;-73
2022/06/13 09:52:06;;;;;;;6.38;1.40;;;;;;;11.02;100.00;101487.38;5058453;28;20036;-73
2022/06/13 09:54:53;;;;;;;2.08;1.30;;;;;;;11.38;100.00;101482.97;5079039;28;20032;-74
2022/06/13 09:57:21;;;;;;;1.35;0.95;;;;;;;11.83;100.00;101499.00;5064129;28;20028;-73
2022/06/13 10:00:14;;;;;;;2.78;0.98;;;;;;;11.98;100.00;101491.28;5062899;28;20028;-74
2022/06/13 10:03:09;;;;;;;5.78;1.35;;;;;;;11.87;100.00;101469.25;5051009;28;20509;-73
2022/06/13 10:05:36;;;;;;;4.60;1.20;;;;;;;11.87;100.00;101453.19;5045098;28;20044;-73
2022/06/13 10:08:14;;;;;;;1.52;1.13;;;;;;;12.01;100.00;101455.34;5062714;28;20021;-73
2022/06/13 10:11:08;;;;;;;3.50;1.38;;;;;;;12.30;100.00;101470.31;5060861;28;20087;-74
2022/06/13 10:13:42;;;;;;;2.58;1.48;;;;;;;12.23;100.00;101454.88;5066996;28;20559;-74
2022/06/13 10:16:26;;;;;;;3.30;1.20;;;;;;;12.12;100.00;101440.91;5065910;28;20482;-73
2022/06/13 10:19:19;;;;;;;2.17;1.20;;;;;;;12.01;100.00;101433.94;5062284;28;20042;-73
2022/06/13 10:21:58;;;;;;;6.30;1.70;;;;;;;11.70;100.00;101438.84;5066172;28;20032;-74
2022/06/13 10:24:55;;;;;;;5.50;2.25;;;;;;;11.49;100.00;101436.44;5049332;28;20032;-73
2022/06/13 10:27:31;;;;;;;7.05;2.10;;;;;;;11.27;100.00;101451.09;5065883;28;20040;-74
2022/06/13 10:30:40;;;;;;;6.65;2.17;;;;;;;11.45;100.00;101465.34;5065838;28;20089;-73
2022/06/13 10:33:27;;;;;;;4.85;2.25;;;;;;;11.52;100.00;101462.88;5060183;28;20051;-70
2022/06/13 10:36:11;;;;;;;5.20;2.00;;;;;;;11.61;100.00;101473.53;5044367;28;20040;-73
2022/06/13 10:38:36;;;;;;;2.88;1.75;;;;;;;11.96;100.00;101465.69;5082709;28;20032;-73
2022/06/13 10:41:02;;;;;;;3.33;1.67;;;;;;;12.65;100.00;101464.84;5067097;28;20395;-72
2022/06/13 10:43:30;;;;;;;4.50;2.30;;;;;;;14.62;100.00;101467.94;5058733;28;20496;-74
2022/06/13 10:45:56;;;;;;;3.70;1.17;;;;;;;15.93;100.00;101429.63;5067518;28;20071;-75
2022/06/13 10:48:40;;;;;;;4.63;1.30;;;;;;;16.86;100.00;101366.34;5065415;28;20044;-75
2022/06/13 10:51:06;;;;;;;1.63;0.80;;;;;;;17.50;100.00;101209.00;5066875;28;20043;-75
2022/06/13 10:53:43;;;;;;;5.80;1.17;;;;;;;17.22;100.00;101092.16;5066915;28;20013;-74
2022/06/13 10:56:19;;;;;;;1.70;0.80;;;;;;;17.02;100.00;101113.59;5048710;28;20516;-73
2022/06/13 10:58:54;;;;;;;3.00;1.35;;;;;;;17.80;100.00;101200.69;5060685;28;20031;-74
2022/06/13 11:01:22;;;;;;;1.75;0.80;;;;;;;17.89;100.00;101123.91;5066555;28;20032;-74
2022/06/13 11:04:01;;;;;;;1.73;1.10;;;;;;;18.48;100.00;101141.31;5066564;28;20077;-75
2022/06/13 11:06:48;;;;;;;2.45;0.95;;;;;;;18.12;100.00;101007.38;5048427;28;20036;-74
2022/06/13 11:09:22;;;;;;;4.22;1.10;;;;;;;17.75;100.00;101038.44;5066526;28;20037;-74
2022/06/13 11:11:54;;;;;;;5.05;0.90;;;;;;;17.11;100.00;101026.09;5066439;28;20082;-74
2022/06/13 11:14:34;;;;;;;2.53;0.90;;;;;;;16.94;100.00;101170.38;5059622;28;20515;-74
2022/06/13 11:22:40;;;;;;;10.00;1.98;;;;;;;15.23;100.00;101319.47;5065598;28;20393;-73
2022/06/13 11:25:19;;;;;;;5.53;1.30;;;;;;;15.33;100.00;101349.66;5064961;28;20737;-72
2022/06/13 11:27:48;;;;;;;4.22;1.55;;;;;;;15.04;100.00;101355.72;5058845;28;20032;-74
2022/06/13 11:30:16;;;;;;;3.47;1.58;;;;;;;14.87;100.00;101349.63;5064611;28;20474;-74
2022/06/13 11:32:57;;;;;;;7.05;1.95;;;;;;;14.77;100.00;101385.59;5065939;28;20431;-74
2022/06/13 11:35:46;;;;;;;4.18;1.50;;;;;;;14.88;100.00;101407.72;5065850;28;20111;-74
2022/06/13 11:38:30;;;;;;;3.95;1.50;;;;;;;15.82;100.00;101414.72;5047921;28;20075;-74
2022/06/13 11:41:16;;;;;;;2.72;1.17;;;;;;;17.45;100.00;101415.78;5061318;28;20111;-76
2022/06/13 11:43:49;;;;;;;2.88;2.53;;;;;;;17.48;100.00;101324.44;5066020;28;20071;-74
2022/06/13 11:46:27;;;;;;;2.38;1.05;;;;;;;18.34;100.00;101239.66;5064295;28;20052;-75
2022/06/13 11:48:54;;;;;;;5.57;1.50;;;;;;;17.92;100.00;101047.03;5064288;28;20036;-74
2022/06/13 11:51:23;;;;;;;1.75;1.00;;;;;;;17.47;100.00;101062.84;5065638;28;20119;-74
2022/06/13 11:53:52;;;;;;;8.32;1.30;;;;;;;16.83;100.00;101190.59;5064316;28;20432;-74
2022/06/13 11:56:28;;;;;;;5.70;1.23;;;;;;;16.56;100.00;101268.47;5063548;28;20091;-74
2022/06/13 11:58:56;;;;;;;2.75;1.10;;;;;;;16.61;100.00;101321.81;5072832;28;20086;-74
2022/06/13 12:01:25;;;;;;;1.20;1.10;;;;;;;16.40;100.00;101331.50;5062936;28;20028;-74
2022/06/13 12:04:12;;;;;;;2.25;1.38;;;;;;;16.34;100.00;101370.00;5064537;28;20074;-75